createdAt,value
2023-03-15T00:02:16.438Z,83.30
2023-03-15T00:04:44.321Z,83.90
2023-03-15T00:07:12.377Z,84.60
2023-03-15T00:09:41.485Z,85.40
2023-03-15T00:12:09.724Z,86.10
2023-03-15T00:14:38.105Z,86.30
2023-03-15T00:17:05.960Z,86.80
2023-03-15T00:19:33.756Z,87.50
2023-03-15T00:22:01.586Z,87.50
2023-03-15T00:24:29.532Z,87.90
2023-03-15T00:26:58.960Z,88.20
2023-03-15T00:29:26.858Z,88.40
2023-03-15T00:31:54.719Z,88.70
2023-03-15T00:34:25.770Z,88.60
2023-03-15T00:36:54.585Z,88.80
2023-03-15T00:39:25.609Z,88.90
2023-03-15T00:41:56.624Z,89.20
2023-03-15T00:44:26.272Z,88.90
2023-03-15T00:46:54.110Z,89.10
2023-03-15T00:49:21.954Z,89.30
2023-03-15T00:51:50.263Z,89.30
2023-03-15T00:54:18.054Z,89.20
2023-03-15T00:56:45.853Z,89.30
2023-03-15T00:59:13.668Z,89.30
2023-03-15T01:01:44.738Z,89.00
2023-03-15T01:04:12.777Z,89.10
2023-03-15T01:06:42.207Z,89.20
2023-03-15T01:09:10.651Z,89.20
2023-03-15T01:11:38.634Z,89.00
2023-03-15T01:14:08.727Z,89.10
2023-03-15T01:16:36.783Z,89.20
2023-03-15T01:19:06.229Z,89.30
2023-03-15T01:21:34.095Z,89.10
2023-03-15T01:24:01.997Z,89.00
2023-03-15T01:26:29.797Z,89.20
2023-03-15T01:28:57.578Z,89.30
2023-03-15T01:31:27.632Z,89.60
2023-03-15T01:33:56.260Z,89.60
2023-03-15T01:36:25.751Z,89.60
2023-03-15T01:38:54.855Z,89.40
2023-03-15T01:41:24.670Z,89.50
2023-03-15T01:43:52.829Z,89.50
2023-03-15T01:46:29.102Z,89.50
2023-03-15T01:49:01.768Z,89.60
2023-03-15T01:51:35.290Z,89.70
2023-03-15T01:54:08.676Z,89.60
2023-03-15T01:56:39.919Z,89.20
2023-03-15T01:59:12.459Z,89.40
2023-03-15T02:01:45.494Z,89.60
2023-03-15T02:04:18.024Z,89.60
2023-03-15T02:06:48.584Z,89.60
2023-03-15T02:09:19.301Z,89.60
2023-03-15T02:11:47.282Z,89.60
2023-03-15T02:14:16.186Z,89.50
2023-03-15T02:16:44.543Z,89.50
2023-03-15T02:19:26.582Z,89.20
2023-03-15T02:22:03.911Z,89.30
2023-03-15T02:24:43.540Z,89.10
2023-03-15T02:27:11.794Z,89.20
2023-03-15T02:29:42.035Z,89.20
2023-03-15T02:32:10.083Z,89.30
2023-03-15T02:34:37.969Z,89.50
2023-03-15T02:37:05.911Z,89.70
2023-03-15T02:39:33.751Z,89.40
2023-03-15T02:42:01.982Z,89.40
2023-03-15T02:44:32.792Z,89.30
2023-03-15T02:47:05.304Z,89.40
2023-03-15T02:49:38.638Z,89.30
2023-03-15T02:52:07.222Z,89.30
2023-03-15T02:54:35.119Z,89.10
2023-03-15T02:57:03.857Z,89.30
2023-03-15T02:59:31.934Z,89.30
2023-03-15T03:01:59.909Z,89.40
2023-03-15T03:04:29.507Z,89.40
2023-03-15T03:06:57.339Z,89.30
2023-03-15T03:09:25.962Z,89.20
2023-03-15T03:11:53.778Z,89.00
2023-03-15T03:14:23.708Z,89.10
2023-03-15T03:16:51.888Z,89.30
2023-03-15T03:19:20.057Z,89.20
2023-03-15T03:21:49.227Z,89.10
2023-03-15T03:24:17.018Z,89.20
2023-03-15T03:26:46.062Z,89.20
2023-03-15T03:29:16.781Z,89.20
2023-03-15T03:31:45.615Z,89.30
2023-03-15T03:34:15.471Z,89.10
2023-03-15T03:36:43.789Z,89.00
2023-03-15T03:39:13.276Z,89.00
2023-03-15T03:41:41.064Z,88.90
2023-03-15T03:44:08.880Z,88.90
2023-03-15T03:46:37.290Z,89.20
2023-03-15T03:49:05.193Z,89.40
2023-03-15T03:51:34.049Z,89.30
2023-03-15T03:54:01.904Z,89.30
2023-03-15T03:56:31.293Z,89.50
2023-03-15T03:58:59.135Z,89.50
2023-03-15T04:01:26.951Z,89.60
2023-03-15T04:03:54.970Z,89.60
2023-03-15T04:06:23.499Z,89.50
2023-03-15T04:08:51.336Z,89.20
2023-03-15T04:11:19.143Z,89.10
2023-03-15T04:13:49.204Z,89.10
2023-03-15T04:16:17.017Z,89.10
2023-03-15T04:18:44.883Z,89.10
2023-03-15T04:21:12.913Z,89.20
2023-03-15T04:23:41.008Z,89.00
2023-03-15T04:26:08.886Z,88.90
2023-03-15T04:28:37.970Z,89.00
2023-03-15T04:31:10.436Z,89.10
2023-03-15T04:33:38.431Z,88.90
2023-03-15T04:36:06.806Z,89.20
2023-03-15T04:38:35.488Z,89.20
2023-03-15T04:41:10.695Z,89.20
2023-03-15T04:43:38.513Z,89.20
2023-03-15T04:46:07.973Z,89.10
2023-03-15T04:48:36.039Z,88.90
2023-03-15T04:51:03.868Z,88.80
2023-03-15T04:53:31.690Z,89.10
2023-03-15T04:55:59.498Z,88.90
2023-03-15T04:58:27.364Z,89.20
2023-03-15T05:00:55.273Z,89.20
2023-03-15T05:03:24.567Z,89.00
2023-03-15T05:05:52.447Z,89.10
2023-03-15T05:08:20.772Z,89.00
2023-03-15T05:10:48.583Z,89.10
2023-03-15T05:13:18.853Z,89.20
2023-03-15T05:15:46.631Z,89.40
2023-03-15T05:18:14.446Z,88.90
2023-03-15T05:20:43.891Z,89.20
2023-03-15T05:23:11.737Z,89.40
2023-03-15T05:25:39.534Z,89.30
2023-03-15T05:28:07.577Z,89.20
2023-03-15T05:30:35.460Z,88.90
2023-03-15T05:33:04.919Z,88.90
2023-03-15T05:35:32.770Z,88.90
2023-03-15T05:38:03.292Z,89.10
2023-03-15T05:40:31.207Z,89.20
2023-03-15T05:42:58.996Z,89.30
2023-03-15T05:45:26.983Z,89.40
2023-03-15T05:47:54.810Z,89.40
2023-03-15T05:50:23.153Z,89.50
2023-03-15T05:52:52.128Z,89.30
2023-03-15T05:55:22.065Z,89.40
2023-03-15T05:57:50.079Z,89.50
2023-03-15T06:00:19.206Z,89.30
2023-03-15T06:02:48.284Z,89.40
2023-03-15T06:05:16.231Z,89.50
2023-03-15T06:07:44.615Z,89.30
2023-03-15T06:10:13.999Z,89.40
2023-03-15T06:12:44.637Z,89.50
2023-03-15T06:15:13.158Z,89.60
2023-03-15T06:17:41.079Z,89.60
2023-03-15T06:20:09.989Z,89.60
2023-03-15T06:22:38.224Z,89.80
2023-03-15T06:25:07.051Z,89.60
2023-03-15T06:27:35.052Z,89.90
2023-03-15T06:30:05.217Z,89.70
2023-03-15T06:32:33.130Z,89.80
2023-03-15T06:35:01.072Z,90.00
2023-03-15T06:37:34.988Z,89.80
2023-03-15T06:40:05.835Z,89.90
2023-03-15T06:42:33.636Z,89.90
2023-03-15T06:45:01.989Z,89.80
2023-03-15T06:47:31.211Z,89.80
2023-03-15T06:49:58.998Z,89.60
2023-03-15T06:52:26.851Z,89.30
2023-03-15T06:54:54.699Z,89.30
2023-03-15T06:57:22.550Z,89.30
2023-03-15T06:59:50.700Z,89.50
2023-03-15T07:02:19.933Z,89.40
2023-03-15T07:04:49.535Z,89.30
2023-03-15T07:07:17.445Z,89.60
2023-03-15T07:09:45.305Z,89.60
2023-03-15T07:12:13.414Z,89.60
2023-03-15T07:14:41.306Z,89.50
2023-03-15T07:17:09.242Z,89.70
2023-03-15T07:19:41.401Z,89.70
2023-03-15T07:22:15.887Z,89.30
2023-03-15T07:24:43.701Z,89.60
2023-03-15T07:27:15.687Z,89.50
2023-03-15T07:29:44.421Z,88.90
2023-03-15T07:32:12.291Z,88.70
2023-03-15T07:34:40.245Z,88.50
2023-03-15T07:37:08.298Z,88.90
2023-03-15T07:39:37.485Z,88.80
2023-03-15T07:42:07.137Z,88.70
2023-03-15T07:44:35.070Z,88.50
2023-03-15T07:47:02.888Z,88.90
2023-03-15T07:49:31.733Z,88.60
2023-03-15T07:51:59.633Z,88.40
2023-03-15T07:54:29.406Z,88.10
2023-03-15T07:56:58.561Z,87.30
2023-03-15T07:59:26.373Z,86.90
2023-03-15T08:01:54.517Z,86.70
2023-03-15T08:04:22.406Z,85.90
2023-03-15T08:06:50.363Z,86.00
2023-03-15T08:09:18.188Z,84.80
2023-03-15T08:11:46.044Z,84.70
2023-03-15T08:14:15.257Z,83.70
2023-03-15T08:16:43.104Z,83.90
2023-03-15T08:19:11.002Z,84.00
2023-03-15T08:21:38.821Z,84.30
2023-03-15T08:24:07.227Z,84.50
2023-03-15T08:26:34.985Z,83.60
2023-03-15T08:29:02.814Z,82.70
2023-03-15T08:31:32.309Z,82.70
2023-03-15T08:34:00.150Z,82.30
2023-03-15T08:36:28.067Z,81.80
2023-03-15T08:38:55.901Z,80.90
2023-03-15T08:41:23.713Z,81.80
2023-03-15T08:43:51.496Z,81.50
2023-03-15T08:46:21.812Z,81.50
2023-03-15T08:48:51.151Z,80.60
2023-03-15T08:51:19.636Z,80.30
2023-03-15T08:53:47.442Z,79.40
2023-03-15T08:56:15.263Z,79.90
2023-03-15T08:58:43.370Z,79.90
2023-03-15T09:01:12.699Z,79.20
2023-03-15T09:03:42.359Z,78.30
2023-03-15T09:06:11.783Z,79.00
2023-03-15T09:08:39.649Z,77.60
2023-03-15T09:11:07.445Z,77.30
2023-03-15T09:13:35.286Z,75.90
2023-03-15T09:16:03.732Z,75.40
2023-03-15T09:18:31.990Z,74.00
2023-03-15T09:20:59.804Z,76.20
2023-03-15T09:23:29.036Z,75.80
2023-03-15T09:25:56.891Z,76.60
2023-03-15T09:28:26.510Z,76.80
2023-03-15T09:30:54.638Z,76.50
2023-03-15T09:33:22.582Z,77.40
2023-03-15T09:35:52.055Z,75.20
2023-03-15T09:38:22.002Z,72.20
2023-03-15T09:40:51.551Z,72.00
2023-03-15T09:43:48.578Z,74.20
2023-03-15T09:46:26.392Z,74.40
2023-03-15T09:48:57.550Z,74.40
2023-03-15T09:51:35.371Z,71.60
2023-03-15T09:54:08.882Z,70.50
2023-03-15T09:56:45.412Z,71.20
2023-03-15T09:59:16.284Z,69.80
2023-03-15T10:01:45.342Z,68.40
2023-03-15T10:04:21.011Z,68.30
2023-03-15T10:06:54.468Z,68.60
2023-03-15T10:09:24.676Z,69.10
2023-03-15T10:12:04.198Z,66.80
2023-03-15T10:14:44.625Z,66.80
2023-03-15T10:17:15.633Z,65.70
2023-03-15T10:19:49.809Z,62.10
2023-03-15T10:22:25.720Z,61.90
2023-03-15T10:24:57.952Z,61.80
2023-03-15T10:27:32.972Z,61.40
2023-03-15T10:30:02.247Z,61.70
2023-03-15T10:32:38.469Z,62.90
2023-03-15T10:35:15.232Z,61.70
2023-03-15T10:37:43.589Z,58.50
2023-03-15T10:40:15.940Z,58.30
2023-03-15T10:42:46.758Z,61.50
2023-03-15T10:45:21.719Z,61.20
2023-03-15T10:47:59.738Z,58.80
2023-03-15T10:50:30.893Z,56.50
2023-03-15T10:53:00.338Z,56.00
2023-03-15T10:55:33.822Z,57.00
2023-03-15T10:58:21.324Z,52.00
2023-03-15T11:00:53.358Z,53.90
2023-03-15T11:03:23.843Z,53.80
2023-03-15T11:05:53.634Z,54.50
2023-03-15T11:08:23.954Z,55.10
2023-03-15T11:10:58.134Z,51.20
2023-03-15T11:13:28.563Z,50.00
2023-03-15T11:16:03.763Z,50.70
2023-03-15T11:18:36.184Z,53.40
2023-03-15T11:21:09.355Z,53.20
2023-03-15T11:23:39.321Z,53.70
2023-03-15T11:26:12.289Z,51.80
2023-03-15T11:28:44.005Z,51.40
2023-03-15T11:31:11.837Z,51.20
2023-03-15T11:33:46.500Z,51.70
2023-03-15T11:36:19.412Z,52.50
2023-03-15T11:38:47.950Z,47.80
2023-03-15T11:41:25.136Z,50.70
2023-03-15T11:44:03.458Z,50.80
2023-03-15T11:46:35.631Z,49.90
2023-03-15T11:49:11.756Z,47.90
2023-03-15T11:51:40.466Z,49.70
2023-03-15T11:54:15.355Z,51.30
2023-03-15T11:56:57.418Z,50.80
2023-03-15T11:59:32.475Z,51.40
2023-03-15T12:02:02.431Z,49.30
2023-03-15T12:04:51.274Z,49.20
2023-03-15T12:07:36.871Z,48.30
2023-03-15T12:10:30.728Z,45.20
2023-03-15T12:13:00.015Z,46.60
2023-03-15T12:15:47.884Z,46.70
2023-03-15T12:18:22.180Z,46.50
2023-03-15T12:21:18.378Z,44.80
2023-03-15T12:23:50.363Z,45.90
2023-03-15T12:26:33.514Z,45.30
2023-03-15T12:29:09.765Z,47.10
2023-03-15T12:32:00.546Z,49.80
2023-03-15T12:34:37.051Z,48.00
2023-03-15T12:37:07.952Z,47.40
2023-03-15T12:39:48.329Z,46.30
2023-03-15T12:43:10.387Z,42.20
2023-03-15T12:45:47.473Z,45.90
2023-03-15T12:48:27.305Z,44.40
2023-03-15T12:51:14.595Z,44.30
2023-03-15T12:53:48.292Z,44.70
2023-03-15T12:56:35.773Z,46.00
2023-03-15T12:59:28.133Z,43.30
2023-03-15T13:01:57.499Z,42.20
2023-03-15T13:04:27.972Z,44.00
2023-03-15T13:07:07.563Z,43.20
2023-03-15T13:10:00.916Z,42.00
2023-03-15T13:12:33.879Z,42.80
2023-03-15T13:15:07.378Z,40.90
2023-03-15T13:17:42.406Z,41.90
2023-03-15T13:20:21.528Z,40.40
2023-03-15T13:22:56.493Z,39.30
2023-03-15T13:25:31.243Z,41.50
2023-03-15T13:28:03.894Z,43.10
2023-03-15T13:30:35.400Z,42.60
2023-03-15T13:33:10.952Z,42.30
2023-03-15T13:35:44.994Z,43.20
2023-03-15T13:38:25.713Z,42.60
2023-03-15T13:40:53.570Z,42.20
2023-03-15T13:43:21.607Z,40.70
2023-03-15T13:45:49.400Z,42.40
2023-03-15T13:48:18.900Z,39.40
2023-03-15T13:50:51.424Z,41.60
2023-03-15T13:53:35.663Z,38.30
2023-03-15T13:56:16.446Z,38.30
2023-03-15T13:58:44.461Z,40.20
2023-03-15T14:01:15.393Z,35.80
2023-03-15T14:03:47.870Z,36.10
2023-03-15T14:06:24.682Z,38.30
2023-03-15T14:08:55.642Z,40.50
2023-03-15T14:11:38.192Z,39.20
2023-03-15T14:14:24.054Z,40.60
2023-03-15T14:17:04.176Z,40.00
2023-03-15T14:19:34.659Z,39.60
2023-03-15T14:22:05.857Z,36.80
2023-03-15T14:24:37.568Z,38.00
2023-03-15T14:27:08.730Z,37.50
2023-03-15T14:29:38.987Z,38.40
2023-03-15T14:32:09.516Z,40.10
2023-03-15T14:34:44.566Z,37.80
2023-03-15T14:37:31.051Z,36.80
2023-03-15T14:40:09.869Z,40.90
2023-03-15T14:42:37.682Z,39.40
2023-03-15T14:45:06.628Z,36.70
2023-03-15T14:47:55.945Z,40.60
2023-03-15T14:50:26.874Z,38.00
2023-03-15T14:52:58.152Z,39.30
2023-03-15T14:55:30.392Z,40.60
2023-03-15T14:57:58.235Z,38.10
2023-03-15T15:00:26.853Z,37.10
2023-03-15T15:02:56.578Z,40.30
2023-03-15T15:05:27.246Z,37.90
2023-03-15T15:08:03.346Z,38.80
2023-03-15T15:10:32.414Z,39.50
2023-03-15T15:13:06.444Z,39.80
2023-03-15T15:15:53.614Z,38.40
2023-03-15T15:18:23.932Z,38.20
2023-03-15T15:20:55.173Z,39.30
2023-03-15T15:23:27.086Z,39.10
2023-03-15T15:25:58.081Z,40.50
2023-03-15T15:28:36.614Z,41.10
2023-03-15T15:31:06.777Z,40.20
2023-03-15T15:33:34.794Z,41.00
2023-03-15T15:36:03.227Z,41.20
2023-03-15T15:38:38.260Z,42.10
2023-03-15T15:41:07.573Z,41.00
2023-03-15T15:43:35.430Z,42.30
2023-03-15T15:46:03.348Z,42.20
2023-03-15T15:48:31.374Z,39.90
2023-03-15T15:50:59.292Z,41.00
2023-03-15T15:53:31.873Z,40.70
2023-03-15T15:56:01.074Z,40.60
2023-03-15T15:58:28.973Z,39.00
2023-03-15T16:00:56.813Z,39.10
2023-03-15T16:03:24.850Z,40.80
2023-03-15T16:05:52.860Z,39.60
2023-03-15T16:08:24.546Z,42.00
2023-03-15T16:10:52.923Z,41.70
2023-03-15T16:13:35.086Z,42.80
2023-03-15T16:16:03.011Z,41.20
2023-03-15T16:18:32.093Z,42.30
2023-03-15T16:21:00.738Z,43.80
2023-03-15T16:23:28.607Z,42.80
2023-03-15T16:25:57.398Z,43.20
2023-03-15T16:28:26.963Z,44.00
2023-03-15T16:30:54.846Z,44.70
2023-03-15T16:33:23.740Z,45.20
2023-03-15T16:35:53.392Z,44.90
2023-03-15T16:38:24.888Z,44.70
2023-03-15T16:40:53.881Z,43.90
2023-03-15T16:43:21.768Z,44.40
2023-03-15T16:45:51.069Z,44.50
2023-03-15T16:48:18.903Z,42.90
2023-03-15T16:50:48.138Z,44.80
2023-03-15T16:53:16.025Z,44.30
2023-03-15T16:55:43.841Z,43.70
2023-03-15T16:58:17.567Z,44.90
2023-03-15T17:00:47.782Z,44.80
2023-03-15T17:03:18.073Z,45.10
2023-03-15T17:05:47.901Z,44.40
2023-03-15T17:08:20.465Z,45.50
2023-03-15T17:10:49.166Z,47.10
2023-03-15T17:13:21.515Z,46.40
2023-03-15T17:15:49.378Z,46.40
2023-03-15T17:18:19.774Z,46.70
2023-03-15T17:20:50.077Z,46.90
2023-03-15T17:23:20.737Z,48.60
2023-03-15T17:25:49.328Z,48.80
2023-03-15T17:28:17.596Z,49.30
2023-03-15T17:30:46.004Z,47.80
2023-03-15T17:33:13.889Z,50.00
2023-03-15T17:35:45.396Z,52.80
2023-03-15T17:38:18.291Z,55.00
2023-03-15T17:40:46.445Z,56.70
2023-03-15T17:43:17.174Z,55.70
2023-03-15T17:45:45.025Z,55.60
2023-03-15T17:48:13.245Z,57.30
2023-03-15T17:50:44.765Z,56.40
2023-03-15T17:53:16.802Z,56.30
2023-03-15T17:55:46.220Z,57.00
2023-03-15T17:58:18.946Z,58.00
2023-03-15T18:00:48.308Z,59.00
2023-03-15T18:03:17.547Z,60.10
2023-03-15T18:05:47.802Z,59.90
2023-03-15T18:08:18.131Z,60.90
2023-03-15T18:10:47.030Z,61.10
2023-03-15T18:13:17.509Z,60.80
2023-03-15T18:15:45.403Z,61.80
2023-03-15T18:18:13.470Z,61.70
2023-03-15T18:20:42.073Z,61.20
2023-03-15T18:23:14.004Z,63.10
2023-03-15T18:25:42.088Z,63.70
2023-03-15T18:28:10.300Z,63.90
2023-03-15T18:30:38.157Z,64.30
2023-03-15T18:33:06.148Z,64.10
2023-03-15T18:35:36.516Z,64.60
2023-03-15T18:38:04.989Z,65.10
2023-03-15T18:40:35.316Z,65.10
2023-03-15T18:43:05.290Z,65.70
2023-03-15T18:45:35.528Z,65.50
2023-03-15T18:48:04.354Z,67.00
2023-03-15T18:50:33.520Z,66.00
2023-03-15T18:53:01.465Z,66.90
2023-03-15T18:55:29.401Z,66.90
2023-03-15T18:57:58.697Z,67.50
2023-03-15T19:00:29.452Z,67.10
2023-03-15T19:02:59.197Z,67.90
2023-03-15T19:05:27.959Z,67.90
2023-03-15T19:07:55.808Z,69.20
2023-03-15T19:10:24.979Z,68.70
2023-03-15T19:12:53.178Z,68.40
2023-03-15T19:15:23.788Z,67.80
2023-03-15T19:17:54.337Z,68.70
2023-03-15T19:20:22.661Z,68.90
2023-03-15T19:22:51.067Z,69.80
2023-03-15T19:25:19.493Z,69.90
2023-03-15T19:27:47.483Z,70.30
2023-03-15T19:30:20.716Z,69.90
2023-03-15T19:32:51.046Z,69.70
2023-03-15T19:35:20.044Z,70.00
2023-03-15T19:37:48.679Z,70.60
2023-03-15T19:40:17.141Z,71.70
2023-03-15T19:42:45.193Z,72.20
2023-03-15T19:45:13.316Z,72.50
2023-03-15T19:47:41.519Z,72.60
2023-03-15T19:50:13.028Z,71.60
2023-03-15T19:52:45.852Z,72.10
2023-03-15T19:55:14.371Z,71.70
2023-03-15T19:57:42.263Z,72.60
2023-03-15T20:00:12.583Z,72.90
2023-03-15T20:02:40.947Z,73.20
2023-03-15T20:05:11.967Z,73.30
2023-03-15T20:07:40.223Z,73.10
2023-03-15T20:10:11.751Z,72.40
2023-03-15T20:12:42.024Z,72.50
2023-03-15T20:15:11.453Z,73.70
2023-03-15T20:17:40.737Z,73.80
2023-03-15T20:20:13.123Z,74.20
2023-03-15T20:22:42.685Z,74.60
2023-03-15T20:25:11.690Z,74.30
2023-03-15T20:27:39.896Z,74.40
2023-03-15T20:30:09.804Z,74.10
2023-03-15T20:32:37.733Z,74.00
2023-03-15T20:35:09.059Z,73.50
2023-03-15T20:37:40.118Z,74.00
2023-03-15T20:40:10.630Z,73.90
2023-03-15T20:42:38.724Z,73.60
2023-03-15T20:45:07.826Z,74.10
2023-03-15T20:47:35.889Z,74.10
2023-03-15T20:50:03.782Z,74.40
2023-03-15T20:52:37.961Z,74.50
2023-03-15T20:55:08.147Z,74.20
2023-03-15T20:57:36.313Z,74.00
2023-03-15T21:00:11.990Z,73.60
2023-03-15T21:02:40.205Z,74.10
2023-03-15T21:05:09.272Z,74.70
2023-03-15T21:07:37.426Z,74.50
2023-03-15T21:10:07.446Z,74.40
2023-03-15T21:12:35.343Z,74.40
2023-03-15T21:15:03.266Z,73.70
2023-03-15T21:17:34.490Z,74.00
2023-03-15T21:20:02.379Z,74.20
2023-03-15T21:22:30.449Z,74.10
2023-03-15T21:24:58.343Z,73.80
2023-03-15T21:27:27.583Z,73.70
2023-03-15T21:29:55.523Z,74.10
2023-03-15T21:32:23.541Z,74.60
2023-03-15T21:34:51.651Z,74.80
2023-03-15T21:37:19.504Z,75.10
2023-03-15T21:39:47.347Z,74.80
2023-03-15T21:42:15.143Z,75.30
2023-03-15T21:44:44.353Z,75.20
2023-03-15T21:47:13.962Z,75.70
2023-03-15T21:49:44.544Z,75.50
2023-03-15T21:52:12.527Z,75.90
2023-03-15T21:54:40.449Z,75.80
2023-03-15T21:57:08.382Z,75.50
2023-03-15T21:59:36.214Z,75.40
2023-03-15T22:02:05.535Z,74.90
2023-03-15T22:04:34.120Z,74.90
2023-03-15T22:07:02.142Z,75.30
2023-03-15T22:09:29.996Z,76.20
2023-03-15T22:11:57.847Z,76.80
2023-03-15T22:14:25.704Z,76.90
2023-03-15T22:16:53.638Z,77.20
2023-03-15T22:19:23.401Z,77.20
2023-03-15T22:21:51.234Z,77.00
2023-03-15T22:24:19.057Z,76.60
2023-03-15T22:26:46.853Z,75.10
2023-03-15T22:29:14.700Z,75.00
2023-03-15T22:31:42.554Z,74.90
2023-03-15T22:34:10.396Z,74.90
2023-03-15T22:36:39.586Z,74.50
2023-03-15T22:39:07.526Z,74.40
2023-03-15T22:41:35.742Z,74.70
2023-03-15T22:44:03.584Z,74.60
2023-03-15T22:46:34.878Z,74.30
2023-03-15T22:49:03.208Z,74.90
2023-03-15T22:51:31.180Z,74.50
2023-03-15T22:54:00.379Z,75.20
2023-03-15T22:56:28.184Z,74.90
2023-03-15T22:58:56.357Z,74.70
2023-03-15T23:01:24.567Z,74.40
2023-03-15T23:03:52.524Z,73.90
2023-03-15T23:06:20.658Z,73.40
2023-03-15T23:08:48.809Z,73.70
2023-03-15T23:11:18.011Z,73.60
2023-03-15T23:13:48.276Z,73.50
2023-03-15T23:16:16.182Z,73.50
2023-03-15T23:18:44.409Z,73.90
2023-03-15T23:21:13.961Z,73.40
2023-03-15T23:23:42.989Z,73.50
2023-03-15T23:26:12.664Z,73.50
2023-03-15T23:28:42.026Z,74.00
2023-03-15T23:31:10.063Z,73.70
2023-03-15T23:33:37.962Z,74.00
2023-03-15T23:36:07.229Z,73.60
2023-03-15T23:38:35.354Z,73.90
2023-03-15T23:41:04.875Z,74.60
2023-03-15T23:43:33.676Z,74.00
2023-03-15T23:46:05.128Z,74.10
2023-03-15T23:48:35.153Z,74.20
2023-03-15T23:51:03.944Z,74.40
2023-03-15T23:53:31.895Z,74.40
2023-03-15T23:55:59.833Z,74.40
2023-03-15T23:58:28.148Z,74.70
